sensor_id;sensor_type;location;lat;lon;timestamp;temperature;humidity
12411;DHT22;6269;51.044;13.692;2024-02-28T00:00:00;5.40;99.90
12411;DHT22;6269;51.044;13.692;2024-02-28T00:02:39;5.40;99.90
12411;DHT22;6269;51.044;13.692;2024-02-28T00:05:17;5.50;99.90
12411;DHT22;6269;51.044;13.692;2024-02-28T00:07:53;5.50;99.90
12411;DHT22;6269;51.044;13.692;2024-02-28T00:10:32;5.50;99.90
12411;DHT22;6269;51.044;13.692;2024-02-28T00:13:10;5.50;99.90
12411;DHT22;6269;51.044;13.692;2024-02-28T00:15:49;5.50;99.90
12411;DHT22;6269;51.044;13.692;2024-02-28T00:18:24;5.40;99.90
12411;DHT22;6269;51.044;13.692;2024-02-28T00:21:03;5.40;99.90
12411;DHT22;6269;51.044;13.692;2024-02-28T00:23:41;5.40;99.90
12411;DHT22;6269;51.044;13.692;2024-02-28T00:26:20;5.40;99.90
12411;DHT22;6269;51.044;13.692;2024-02-28T00:28:55;5.40;99.90
12411;DHT22;6269;51.044;13.692;2024-02-28T00:31:31;5.40;99.90
12411;DHT22;6269;51.044;13.692;2024-02-28T00:34:06;5.40;99.90
12411;DHT22;6269;51.044;13.692;2024-02-28T00:36:48;5.40;99.90
12411;DHT22;6269;51.044;13.692;2024-02-28T00:39:28;5.50;99.90
12411;DHT22;6269;51.044;13.692;2024-02-28T00:42:03;5.40;99.90
12411;DHT22;6269;51.044;13.692;2024-02-28T00:44:38;5.40;99.90
12411;DHT22;6269;51.044;13.692;2024-02-28T00:47:14;5.40;99.90
12411;DHT22;6269;51.044;13.692;2024-02-28T00:49:50;5.40;99.90
12411;DHT22;6269;51.044;13.692;2024-02-28T00:52:28;5.50;99.90
12411;DHT22;6269;51.044;13.692;2024-02-28T00:55:05;5.50;99.90
12411;DHT22;6269;51.044;13.692;2024-02-28T00:57:43;5.40;99.90
12411;DHT22;6269;51.044;13.692;2024-02-28T01:00:19;5.40;99.90
12411;DHT22;6269;51.044;13.692;2024-02-28T01:02:54;5.50;99.90
12411;DHT22;6269;51.044;13.692;2024-02-28T01:05:33;5.20;99.90
12411;DHT22;6269;51.044;13.692;2024-02-28T01:08:10;5.50;99.90
12411;DHT22;6269;51.044;13.692;2024-02-28T01:10:46;5.60;99.90
12411;DHT22;6269;51.044;13.692;2024-02-28T01:13:25;5.50;99.90
12411;DHT22;6269;51.044;13.692;2024-02-28T01:16:05;5.60;99.90
12411;DHT22;6269;51.044;13.692;2024-02-28T01:18:40;5.50;99.90
12411;DHT22;6269;51.044;13.692;2024-02-28T01:21:16;5.60;99.90
12411;DHT22;6269;51.044;13.692;2024-02-28T01:23:54;5.50;99.90
12411;DHT22;6269;51.044;13.692;2024-02-28T01:26:32;5.50;99.90
12411;DHT22;6269;51.044;13.692;2024-02-28T01:29:07;5.50;99.90
12411;DHT22;6269;51.044;13.692;2024-02-28T01:31:42;5.40;99.90
12411;DHT22;6269;51.044;13.692;2024-02-28T01:34:18;5.50;99.90
12411;DHT22;6269;51.044;13.692;2024-02-28T01:36:53;5.50;99.90
12411;DHT22;6269;51.044;13.692;2024-02-28T01:39:31;5.60;99.90
12411;DHT22;6269;51.044;13.692;2024-02-28T01:42:07;5.60;99.90
12411;DHT22;6269;51.044;13.692;2024-02-28T01:44:45;5.50;99.90
12411;DHT22;6269;51.044;13.692;2024-02-28T01:47:22;5.50;99.90
12411;DHT22;6269;51.044;13.692;2024-02-28T01:49:59;5.60;99.90
12411;DHT22;6269;51.044;13.692;2024-02-28T01:52:36;5.70;99.90
12411;DHT22;6269;51.044;13.692;2024-02-28T01:55:15;5.50;99.90
12411;DHT22;6269;51.044;13.692;2024-02-28T01:57:50;5.50;99.90
12411;DHT22;6269;51.044;13.692;2024-02-28T02:00:30;5.50;99.90
12411;DHT22;6269;51.044;13.692;2024-02-28T02:03:09;5.40;99.90
12411;DHT22;6269;51.044;13.692;2024-02-28T02:05:45;5.50;99.90
12411;DHT22;6269;51.044;13.692;2024-02-28T02:08:20;5.50;99.90
12411;DHT22;6269;51.044;13.692;2024-02-28T02:10:59;6.00;99.90
12411;DHT22;6269;51.044;13.692;2024-02-28T02:13:37;5.50;99.90
12411;DHT22;6269;51.044;13.692;2024-02-28T02:16:22;5.40;99.90
12411;DHT22;6269;51.044;13.692;2024-02-28T02:18:59;5.50;99.90
12411;DHT22;6269;51.044;13.692;2024-02-28T02:21:40;5.50;99.90
12411;DHT22;6269;51.044;13.692;2024-02-28T02:24:19;5.10;99.90
12411;DHT22;6269;51.044;13.692;2024-02-28T02:26:56;5.50;99.90
12411;DHT22;6269;51.044;13.692;2024-02-28T02:29:34;5.50;99.90
12411;DHT22;6269;51.044;13.692;2024-02-28T02:32:10;5.50;99.90
12411;DHT22;6269;51.044;13.692;2024-02-28T02:34:46;5.40;99.90
12411;DHT22;6269;51.044;13.692;2024-02-28T02:37:21;5.50;99.90
12411;DHT22;6269;51.044;13.692;2024-02-28T02:39:59;5.40;99.90
12411;DHT22;6269;51.044;13.692;2024-02-28T02:42:35;5.40;99.90
12411;DHT22;6269;51.044;13.692;2024-02-28T02:45:10;5.40;99.90
12411;DHT22;6269;51.044;13.692;2024-02-28T02:47:47;5.40;99.90
12411;DHT22;6269;51.044;13.692;2024-02-28T02:50:22;5.30;99.90
12411;DHT22;6269;51.044;13.692;2024-02-28T02:52:58;5.30;99.90
12411;DHT22;6269;51.044;13.692;2024-02-28T02:55:38;6.20;99.90
12411;DHT22;6269;51.044;13.692;2024-02-28T02:58:15;5.30;99.90
12411;DHT22;6269;51.044;13.692;2024-02-28T03:00:50;5.70;99.90
12411;DHT22;6269;51.044;13.692;2024-02-28T03:03:25;5.40;99.90
12411;DHT22;6269;51.044;13.692;2024-02-28T03:06:01;5.40;99.90
12411;DHT22;6269;51.044;13.692;2024-02-28T03:08:40;5.40;99.90
12411;DHT22;6269;51.044;13.692;2024-02-28T03:11:18;5.30;99.90
12411;DHT22;6269;51.044;13.692;2024-02-28T03:13:54;5.30;99.90
12411;DHT22;6269;51.044;13.692;2024-02-28T03:16:32;5.30;99.90
12411;DHT22;6269;51.044;13.692;2024-02-28T03:19:12;5.30;99.90
12411;DHT22;6269;51.044;13.692;2024-02-28T03:21:48;5.30;99.90
12411;DHT22;6269;51.044;13.692;2024-02-28T03:24:23;5.20;99.90
12411;DHT22;6269;51.044;13.692;2024-02-28T03:27:05;5.20;99.90
12411;DHT22;6269;51.044;13.692;2024-02-28T03:29:43;5.20;99.90
12411;DHT22;6269;51.044;13.692;2024-02-28T03:32:18;5.10;99.90
12411;DHT22;6269;51.044;13.692;2024-02-28T03:34:53;5.10;99.90
12411;DHT22;6269;51.044;13.692;2024-02-28T03:37:29;5.20;99.90
12411;DHT22;6269;51.044;13.692;2024-02-28T03:40:08;5.20;99.90
12411;DHT22;6269;51.044;13.692;2024-02-28T03:42:49;5.20;99.90
12411;DHT22;6269;51.044;13.692;2024-02-28T03:45:27;5.10;99.90
12411;DHT22;6269;51.044;13.692;2024-02-28T03:48:06;5.10;99.90
12411;DHT22;6269;51.044;13.692;2024-02-28T03:50:45;5.10;99.90
12411;DHT22;6269;51.044;13.692;2024-02-28T03:53:20;5.00;99.90
12411;DHT22;6269;51.044;13.692;2024-02-28T03:56:00;5.10;99.90
12411;DHT22;6269;51.044;13.692;2024-02-28T03:58:39;5.10;99.90
12411;DHT22;6269;51.044;13.692;2024-02-28T04:01:17;5.00;99.90
12411;DHT22;6269;51.044;13.692;2024-02-28T04:03:53;5.00;99.90
12411;DHT22;6269;51.044;13.692;2024-02-28T04:06:31;5.00;99.90
12411;DHT22;6269;51.044;13.692;2024-02-28T04:09:10;5.00;99.90
12411;DHT22;6269;51.044;13.692;2024-02-28T04:11:45;5.00;99.90
12411;DHT22;6269;51.044;13.692;2024-02-28T04:14:23;4.90;99.90
12411;DHT22;6269;51.044;13.692;2024-02-28T04:16:58;5.00;99.90
12411;DHT22;6269;51.044;13.692;2024-02-28T04:19:34;5.00;99.90
12411;DHT22;6269;51.044;13.692;2024-02-28T04:22:16;4.90;99.90
12411;DHT22;6269;51.044;13.692;2024-02-28T04:24:51;4.90;99.90
12411;DHT22;6269;51.044;13.692;2024-02-28T04:27:27;4.80;99.90
12411;DHT22;6269;51.044;13.692;2024-02-28T04:30:06;4.70;99.90
12411;DHT22;6269;51.044;13.692;2024-02-28T04:32:42;4.70;99.90
12411;DHT22;6269;51.044;13.692;2024-02-28T04:35:17;4.70;99.90
12411;DHT22;6269;51.044;13.692;2024-02-28T04:37:53;4.80;99.90
12411;DHT22;6269;51.044;13.692;2024-02-28T04:40:28;4.90;99.90
12411;DHT22;6269;51.044;13.692;2024-02-28T04:43:04;5.60;99.90
12411;DHT22;6269;51.044;13.692;2024-02-28T04:45:45;4.80;99.90
12411;DHT22;6269;51.044;13.692;2024-02-28T04:48:20;4.80;99.90
12411;DHT22;6269;51.044;13.692;2024-02-28T04:50:56;4.70;99.90
12411;DHT22;6269;51.044;13.692;2024-02-28T04:53:34;4.80;99.90
12411;DHT22;6269;51.044;13.692;2024-02-28T04:56:09;4.80;99.90
12411;DHT22;6269;51.044;13.692;2024-02-28T04:58:47;4.80;99.90
12411;DHT22;6269;51.044;13.692;2024-02-28T05:01:25;5.00;99.90
12411;DHT22;6269;51.044;13.692;2024-02-28T05:04:01;4.90;99.90
12411;DHT22;6269;51.044;13.692;2024-02-28T05:06:39;4.70;99.90
12411;DHT22;6269;51.044;13.692;2024-02-28T05:09:15;4.90;99.90
12411;DHT22;6269;51.044;13.692;2024-02-28T05:11:51;4.80;99.90
12411;DHT22;6269;51.044;13.692;2024-02-28T05:14:26;4.80;99.90
12411;DHT22;6269;51.044;13.692;2024-02-28T05:17:04;4.80;99.90
12411;DHT22;6269;51.044;13.692;2024-02-28T05:19:42;4.90;99.90
12411;DHT22;6269;51.044;13.692;2024-02-28T05:22:17;5.00;99.90
12411;DHT22;6269;51.044;13.692;2024-02-28T05:24:56;5.60;99.90
12411;DHT22;6269;51.044;13.692;2024-02-28T05:27:31;4.90;99.90
12411;DHT22;6269;51.044;13.692;2024-02-28T05:30:11;4.90;99.90
12411;DHT22;6269;51.044;13.692;2024-02-28T05:32:49;4.90;99.90
12411;DHT22;6269;51.044;13.692;2024-02-28T05:35:25;4.80;99.90
12411;DHT22;6269;51.044;13.692;2024-02-28T05:38:00;4.80;99.90
12411;DHT22;6269;51.044;13.692;2024-02-28T05:40:38;4.80;99.90
12411;DHT22;6269;51.044;13.692;2024-02-28T05:43:19;4.70;99.90
12411;DHT22;6269;51.044;13.692;2024-02-28T05:45:55;4.60;99.90
12411;DHT22;6269;51.044;13.692;2024-02-28T05:48:33;4.60;99.90
12411;DHT22;6269;51.044;13.692;2024-02-28T05:51:09;4.60;99.90
12411;DHT22;6269;51.044;13.692;2024-02-28T05:53:46;4.60;99.90
12411;DHT22;6269;51.044;13.692;2024-02-28T05:56:21;4.60;99.90
12411;DHT22;6269;51.044;13.692;2024-02-28T05:58:57;4.70;99.90
12411;DHT22;6269;51.044;13.692;2024-02-28T06:01:35;4.80;99.90
12411;DHT22;6269;51.044;13.692;2024-02-28T06:04:18;5.60;99.90
12411;DHT22;6269;51.044;13.692;2024-02-28T06:06:57;4.80;99.90
12411;DHT22;6269;51.044;13.692;2024-02-28T06:09:35;4.80;99.90
12411;DHT22;6269;51.044;13.692;2024-02-28T06:12:11;4.80;99.90
12411;DHT22;6269;51.044;13.692;2024-02-28T06:14:46;4.80;99.90
12411;DHT22;6269;51.044;13.692;2024-02-28T06:17:22;6.10;99.90
12411;DHT22;6269;51.044;13.692;2024-02-28T06:20:03;4.90;99.90
12411;DHT22;6269;51.044;13.692;2024-02-28T06:22:42;4.90;99.90
12411;DHT22;6269;51.044;13.692;2024-02-28T06:25:20;4.80;99.90
12411;DHT22;6269;51.044;13.692;2024-02-28T06:28:00;4.90;99.90
12411;DHT22;6269;51.044;13.692;2024-02-28T06:30:42;5.90;99.90
12411;DHT22;6269;51.044;13.692;2024-02-28T06:33:21;5.50;99.90
12411;DHT22;6269;51.044;13.692;2024-02-28T06:36:03;4.90;99.90
12411;DHT22;6269;51.044;13.692;2024-02-28T06:38:42;4.90;99.90
12411;DHT22;6269;51.044;13.692;2024-02-28T06:41:20;5.00;99.90
12411;DHT22;6269;51.044;13.692;2024-02-28T06:43:59;5.00;99.90
12411;DHT22;6269;51.044;13.692;2024-02-28T06:46:35;5.00;99.90
12411;DHT22;6269;51.044;13.692;2024-02-28T06:49:13;5.10;99.90
12411;DHT22;6269;51.044;13.692;2024-02-28T06:51:51;5.00;99.90
12411;DHT22;6269;51.044;13.692;2024-02-28T06:54:27;4.80;99.90
12411;DHT22;6269;51.044;13.692;2024-02-28T06:57:04;4.90;99.90
12411;DHT22;6269;51.044;13.692;2024-02-28T06:59:39;4.90;99.90
12411;DHT22;6269;51.044;13.692;2024-02-28T07:02:17;4.90;99.90
12411;DHT22;6269;51.044;13.692;2024-02-28T07:04:54;4.90;99.90
12411;DHT22;6269;51.044;13.692;2024-02-28T07:07:32;4.90;99.90
12411;DHT22;6269;51.044;13.692;2024-02-28T07:10:10;6.30;99.90
12411;DHT22;6269;51.044;13.692;2024-02-28T07:12:49;5.90;99.90
12411;DHT22;6269;51.044;13.692;2024-02-28T07:15:25;4.90;99.90
12411;DHT22;6269;51.044;13.692;2024-02-28T07:18:04;6.00;99.90
12411;DHT22;6269;51.044;13.692;2024-02-28T07:20:42;4.90;99.90
12411;DHT22;6269;51.044;13.692;2024-02-28T07:23:23;5.00;99.90
12411;DHT22;6269;51.044;13.692;2024-02-28T07:26:01;4.90;99.90
12411;DHT22;6269;51.044;13.692;2024-02-28T07:28:50;4.80;99.90
12411;DHT22;6269;51.044;13.692;2024-02-28T07:31:25;4.80;99.90
12411;DHT22;6269;51.044;13.692;2024-02-28T07:34:01;4.90;99.90
12411;DHT22;6269;51.044;13.692;2024-02-28T07:36:37;4.90;99.90
12411;DHT22;6269;51.044;13.692;2024-02-28T07:39:18;5.40;99.90
12411;DHT22;6269;51.044;13.692;2024-02-28T07:41:54;5.50;99.90
12411;DHT22;6269;51.044;13.692;2024-02-28T07:44:40;5.60;99.90
12411;DHT22;6269;51.044;13.692;2024-02-28T07:47:22;5.00;99.90
12411;DHT22;6269;51.044;13.692;2024-02-28T07:50:01;4.90;99.90
12411;DHT22;6269;51.044;13.692;2024-02-28T07:52:37;4.90;99.90
12411;DHT22;6269;51.044;13.692;2024-02-28T07:55:16;4.80;99.90
12411;DHT22;6269;51.044;13.692;2024-02-28T07:57:52;4.80;99.90
12411;DHT22;6269;51.044;13.692;2024-02-28T08:00:28;4.90;99.90
12411;DHT22;6269;51.044;13.692;2024-02-28T08:03:08;5.40;99.90
12411;DHT22;6269;51.044;13.692;2024-02-28T08:05:44;4.90;99.90
12411;DHT22;6269;51.044;13.692;2024-02-28T08:08:24;4.80;99.90
12411;DHT22;6269;51.044;13.692;2024-02-28T08:11:03;4.80;99.90
12411;DHT22;6269;51.044;13.692;2024-02-28T08:13:39;4.80;99.90
12411;DHT22;6269;51.044;13.692;2024-02-28T08:16:19;4.90;99.90
12411;DHT22;6269;51.044;13.692;2024-02-28T08:18:54;4.90;99.90
12411;DHT22;6269;51.044;13.692;2024-02-28T08:21:31;5.00;99.90
12411;DHT22;6269;51.044;13.692;2024-02-28T08:24:08;5.00;99.90
12411;DHT22;6269;51.044;13.692;2024-02-28T08:26:46;5.00;99.90
12411;DHT22;6269;51.044;13.692;2024-02-28T08:29:23;5.20;99.90
12411;DHT22;6269;51.044;13.692;2024-02-28T08:32:02;4.90;99.90
12411;DHT22;6269;51.044;13.692;2024-02-28T08:34:43;4.90;99.90
12411;DHT22;6269;51.044;13.692;2024-02-28T08:37:19;4.80;99.90
12411;DHT22;6269;51.044;13.692;2024-02-28T08:39:55;4.80;99.90
12411;DHT22;6269;51.044;13.692;2024-02-28T08:42:33;6.40;99.90
12411;DHT22;6269;51.044;13.692;2024-02-28T08:45:10;6.50;99.90
12411;DHT22;6269;51.044;13.692;2024-02-28T08:47:45;5.00;99.90
12411;DHT22;6269;51.044;13.692;2024-02-28T08:50:21;5.80;99.90
12411;DHT22;6269;51.044;13.692;2024-02-28T08:53:03;5.20;99.90
12411;DHT22;6269;51.044;13.692;2024-02-28T08:55:38;5.10;99.90
12411;DHT22;6269;51.044;13.692;2024-02-28T08:58:20;5.10;99.90
12411;DHT22;6269;51.044;13.692;2024-02-28T09:00:56;5.10;99.90
12411;DHT22;6269;51.044;13.692;2024-02-28T09:03:33;5.10;99.90
12411;DHT22;6269;51.044;13.692;2024-02-28T09:06:08;5.00;99.90
12411;DHT22;6269;51.044;13.692;2024-02-28T09:08:44;5.10;99.90
12411;DHT22;6269;51.044;13.692;2024-02-28T09:11:22;5.10;99.90
12411;DHT22;6269;51.044;13.692;2024-02-28T09:14:04;5.10;99.90
12411;DHT22;6269;51.044;13.692;2024-02-28T09:16:39;5.20;99.90
12411;DHT22;6269;51.044;13.692;2024-02-28T09:19:14;5.20;99.90
12411;DHT22;6269;51.044;13.692;2024-02-28T09:21:50;6.90;99.90
12411;DHT22;6269;51.044;13.692;2024-02-28T09:24:26;5.10;99.90
12411;DHT22;6269;51.044;13.692;2024-02-28T09:27:02;5.10;99.90
12411;DHT22;6269;51.044;13.692;2024-02-28T09:29:43;5.20;99.90
12411;DHT22;6269;51.044;13.692;2024-02-28T09:32:18;5.20;99.90
12411;DHT22;6269;51.044;13.692;2024-02-28T09:34:54;5.10;99.90
12411;DHT22;6269;51.044;13.692;2024-02-28T09:37:29;5.20;99.90
12411;DHT22;6269;51.044;13.692;2024-02-28T09:40:09;5.20;99.90
12411;DHT22;6269;51.044;13.692;2024-02-28T09:42:50;5.30;99.90
12411;DHT22;6269;51.044;13.692;2024-02-28T09:45:30;5.40;99.90
12411;DHT22;6269;51.044;13.692;2024-02-28T09:48:09;5.40;99.90
12411;DHT22;6269;51.044;13.692;2024-02-28T09:50:45;5.50;99.90
12411;DHT22;6269;51.044;13.692;2024-02-28T09:53:24;5.50;99.90
12411;DHT22;6269;51.044;13.692;2024-02-28T09:56:00;5.60;99.90
12411;DHT22;6269;51.044;13.692;2024-02-28T09:58:36;5.60;99.90
12411;DHT22;6269;51.044;13.692;2024-02-28T10:01:19;5.60;99.90
12411;DHT22;6269;51.044;13.692;2024-02-28T10:03:59;6.30;99.90
12411;DHT22;6269;51.044;13.692;2024-02-28T10:06:35;5.60;99.90
12411;DHT22;6269;51.044;13.692;2024-02-28T10:09:14;5.50;99.90
12411;DHT22;6269;51.044;13.692;2024-02-28T10:11:50;5.40;99.90
12411;DHT22;6269;51.044;13.692;2024-02-28T10:14:28;5.60;99.90
12411;DHT22;6269;51.044;13.692;2024-02-28T10:17:07;5.70;99.90
12411;DHT22;6269;51.044;13.692;2024-02-28T10:19:44;5.70;99.90
12411;DHT22;6269;51.044;13.692;2024-02-28T10:22:20;6.40;99.90
12411;DHT22;6269;51.044;13.692;2024-02-28T10:24:58;6.80;99.90
12411;DHT22;6269;51.044;13.692;2024-02-28T10:27:35;5.80;99.90
12411;DHT22;6269;51.044;13.692;2024-02-28T10:30:11;5.80;99.90
12411;DHT22;6269;51.044;13.692;2024-02-28T10:32:52;6.00;99.90
12411;DHT22;6269;51.044;13.692;2024-02-28T10:35:28;6.00;99.90
12411;DHT22;6269;51.044;13.692;2024-02-28T10:38:04;6.40;99.90
12411;DHT22;6269;51.044;13.692;2024-02-28T10:40:40;6.20;99.90
12411;DHT22;6269;51.044;13.692;2024-02-28T10:43:16;6.30;99.90
12411;DHT22;6269;51.044;13.692;2024-02-28T10:45:56;6.60;99.90
12411;DHT22;6269;51.044;13.692;2024-02-28T10:48:37;6.00;99.90
12411;DHT22;6269;51.044;13.692;2024-02-28T10:51:16;6.00;99.90
12411;DHT22;6269;51.044;13.692;2024-02-28T10:54:04;5.90;99.90
12411;DHT22;6269;51.044;13.692;2024-02-28T10:56:42;6.60;99.90
12411;DHT22;6269;51.044;13.692;2024-02-28T10:59:18;5.80;99.90
12411;DHT22;6269;51.044;13.692;2024-02-28T11:01:55;5.80;99.90
12411;DHT22;6269;51.044;13.692;2024-02-28T11:04:33;6.00;99.90
12411;DHT22;6269;51.044;13.692;2024-02-28T11:07:09;5.90;99.90
12411;DHT22;6269;51.044;13.692;2024-02-28T11:09:45;6.20;99.90
12411;DHT22;6269;51.044;13.692;2024-02-28T11:12:25;5.90;99.90
12411;DHT22;6269;51.044;13.692;2024-02-28T11:15:02;5.80;99.90
12411;DHT22;6269;51.044;13.692;2024-02-28T11:17:38;5.80;99.90
12411;DHT22;6269;51.044;13.692;2024-02-28T11:20:18;6.80;99.90
12411;DHT22;6269;51.044;13.692;2024-02-28T11:23:00;6.00;99.90
12411;DHT22;6269;51.044;13.692;2024-02-28T11:25:35;6.80;99.90
12411;DHT22;6269;51.044;13.692;2024-02-28T11:28:11;6.20;99.90
12411;DHT22;6269;51.044;13.692;2024-02-28T11:30:47;6.20;99.90
12411;DHT22;6269;51.044;13.692;2024-02-28T11:33:23;6.30;99.90
12411;DHT22;6269;51.044;13.692;2024-02-28T11:36:05;6.50;99.90
12411;DHT22;6269;51.044;13.692;2024-02-28T11:38:43;6.40;99.90
12411;DHT22;6269;51.044;13.692;2024-02-28T11:41:25;6.40;99.90
12411;DHT22;6269;51.044;13.692;2024-02-28T11:44:03;6.20;99.90
12411;DHT22;6269;51.044;13.692;2024-02-28T11:46:46;6.20;99.90
12411;DHT22;6269;51.044;13.692;2024-02-28T11:49:22;6.30;99.90
12411;DHT22;6269;51.044;13.692;2024-02-28T11:52:00;6.30;99.90
12411;DHT22;6269;51.044;13.692;2024-02-28T11:54:36;6.20;99.90
12411;DHT22;6269;51.044;13.692;2024-02-28T11:57:14;6.30;99.90
12411;DHT22;6269;51.044;13.692;2024-02-28T11:59:50;6.40;99.90
12411;DHT22;6269;51.044;13.692;2024-02-28T12:02:26;6.50;99.90
12411;DHT22;6269;51.044;13.692;2024-02-28T12:05:03;7.00;99.90
12411;DHT22;6269;51.044;13.692;2024-02-28T12:07:44;6.50;99.90
12411;DHT22;6269;51.044;13.692;2024-02-28T12:10:20;6.30;99.90
12411;DHT22;6269;51.044;13.692;2024-02-28T12:13:01;6.40;99.90
12411;DHT22;6269;51.044;13.692;2024-02-28T12:15:36;6.50;99.90
12411;DHT22;6269;51.044;13.692;2024-02-28T12:18:15;6.60;99.90
12411;DHT22;6269;51.044;13.692;2024-02-28T12:20:50;6.70;99.90
12411;DHT22;6269;51.044;13.692;2024-02-28T12:23:28;6.70;99.90
12411;DHT22;6269;51.044;13.692;2024-02-28T12:26:04;6.70;99.90
12411;DHT22;6269;51.044;13.692;2024-02-28T12:28:39;6.80;99.90
12411;DHT22;6269;51.044;13.692;2024-02-28T12:31:17;7.10;99.90
12411;DHT22;6269;51.044;13.692;2024-02-28T12:33:56;6.70;99.90
12411;DHT22;6269;51.044;13.692;2024-02-28T12:36:32;6.70;93.50
12411;DHT22;6269;51.044;13.692;2024-02-28T12:39:13;6.60;99.90
12411;DHT22;6269;51.044;13.692;2024-02-28T12:41:48;6.40;99.90
12411;DHT22;6269;51.044;13.692;2024-02-28T12:44:24;6.40;99.90
12411;DHT22;6269;51.044;13.692;2024-02-28T12:46:59;6.30;97.70
12411;DHT22;6269;51.044;13.692;2024-02-28T12:49:35;6.30;61.30
12411;DHT22;6269;51.044;13.692;2024-02-28T12:52:14;6.40;99.90
12411;DHT22;6269;51.044;13.692;2024-02-28T12:54:52;6.50;1.00
12411;DHT22;6269;51.044;13.692;2024-02-28T12:57:27;5.80;1.00
12411;DHT22;6269;51.044;13.692;2024-02-28T13:00:04;6.70;99.90
12411;DHT22;6269;51.044;13.692;2024-02-28T13:02:40;6.70;1.00
12411;DHT22;6269;51.044;13.692;2024-02-28T13:05:19;6.80;56.70
12411;DHT22;6269;51.044;13.692;2024-02-28T13:07:54;6.80;99.90
12411;DHT22;6269;51.044;13.692;2024-02-28T13:10:33;6.90;99.90
12411;DHT22;6269;51.044;13.692;2024-02-28T13:13:18;6.90;1.00
12411;DHT22;6269;51.044;13.692;2024-02-28T13:15:56;6.90;1.00
12411;DHT22;6269;51.044;13.692;2024-02-28T13:18:32;7.00;1.00
12411;DHT22;6269;51.044;13.692;2024-02-28T13:21:10;7.00;1.00
12411;DHT22;6269;51.044;13.692;2024-02-28T13:23:46;7.30;99.90
12411;DHT22;6269;51.044;13.692;2024-02-28T13:26:24;7.30;99.90
12411;DHT22;6269;51.044;13.692;2024-02-28T13:29:02;7.30;99.90
12411;DHT22;6269;51.044;13.692;2024-02-28T13:31:37;7.30;99.90
12411;DHT22;6269;51.044;13.692;2024-02-28T13:34:13;7.30;99.90
12411;DHT22;6269;51.044;13.692;2024-02-28T13:36:49;7.20;99.90
12411;DHT22;6269;51.044;13.692;2024-02-28T13:39:25;7.40;99.90
12411;DHT22;6269;51.044;13.692;2024-02-28T13:42:06;7.50;99.90
12411;DHT22;6269;51.044;13.692;2024-02-28T13:44:42;7.80;44.60
12411;DHT22;6269;51.044;13.692;2024-02-28T13:47:17;7.90;1.00
12411;DHT22;6269;51.044;13.692;2024-02-28T13:49:56;8.40;1.00
12411;DHT22;6269;51.044;13.692;2024-02-28T13:52:31;8.80;1.00
12411;DHT22;6269;51.044;13.692;2024-02-28T13:55:07;8.90;1.00
12411;DHT22;6269;51.044;13.692;2024-02-28T13:57:46;8.80;1.00
12411;DHT22;6269;51.044;13.692;2024-02-28T14:00:22;9.60;1.00
12411;DHT22;6269;51.044;13.692;2024-02-28T14:03:01;8.10;1.00
12411;DHT22;6269;51.044;13.692;2024-02-28T14:05:36;7.70;1.00
12411;DHT22;6269;51.044;13.692;2024-02-28T14:08:12;8.50;1.00
12411;DHT22;6269;51.044;13.692;2024-02-28T14:10:47;8.20;1.00
12411;DHT22;6269;51.044;13.692;2024-02-28T14:13:25;8.40;1.00
12411;DHT22;6269;51.044;13.692;2024-02-28T14:16:01;9.20;1.00
12411;DHT22;6269;51.044;13.692;2024-02-28T14:18:36;10.10;1.00
12411;DHT22;6269;51.044;13.692;2024-02-28T14:21:11;11.50;1.00
12411;DHT22;6269;51.044;13.692;2024-02-28T14:23:47;12.70;1.00
12411;DHT22;6269;51.044;13.692;2024-02-28T14:26:22;13.60;1.00
12411;DHT22;6269;51.044;13.692;2024-02-28T14:29:02;14.40;1.00
12411;DHT22;6269;51.044;13.692;2024-02-28T14:31:37;15.10;1.00
12411;DHT22;6269;51.044;13.692;2024-02-28T14:34:14;14.90;99.90
12411;DHT22;6269;51.044;13.692;2024-02-28T14:36:50;14.10;99.90
12411;DHT22;6269;51.044;13.692;2024-02-28T14:39:25;13.70;99.90
12411;DHT22;6269;51.044;13.692;2024-02-28T14:42:04;13.80;99.90
12411;DHT22;6269;51.044;13.692;2024-02-28T14:44:43;13.20;99.90
12411;DHT22;6269;51.044;13.692;2024-02-28T14:47:24;13.70;99.90
12411;DHT22;6269;51.044;13.692;2024-02-28T14:50:00;13.10;99.90
12411;DHT22;6269;51.044;13.692;2024-02-28T14:52:36;12.80;99.90
12411;DHT22;6269;51.044;13.692;2024-02-28T14:55:13;12.40;99.90
12411;DHT22;6269;51.044;13.692;2024-02-28T14:57:48;11.90;99.90
12411;DHT22;6269;51.044;13.692;2024-02-28T15:00:27;11.40;99.90
12411;DHT22;6269;51.044;13.692;2024-02-28T15:03:03;11.20;99.90
12411;DHT22;6269;51.044;13.692;2024-02-28T15:05:38;10.70;99.90
12411;DHT22;6269;51.044;13.692;2024-02-28T15:08:15;10.50;99.90
12411;DHT22;6269;51.044;13.692;2024-02-28T15:10:50;11.10;99.90
12411;DHT22;6269;51.044;13.692;2024-02-28T15:13:26;10.50;99.90
12411;DHT22;6269;51.044;13.692;2024-02-28T15:16:08;10.30;99.90
12411;DHT22;6269;51.044;13.692;2024-02-28T15:18:44;9.90;99.90
12411;DHT22;6269;51.044;13.692;2024-02-28T15:21:19;8.40;1.00
12411;DHT22;6269;51.044;13.692;2024-02-28T15:23:58;9.70;1.00
12411;DHT22;6269;51.044;13.692;2024-02-28T15:26:37;8.80;1.00
12411;DHT22;6269;51.044;13.692;2024-02-28T15:29:18;8.40;1.00
12411;DHT22;6269;51.044;13.692;2024-02-28T15:32:02;8.10;1.00
12411;DHT22;6269;51.044;13.692;2024-02-28T15:34:43;7.70;1.00
12411;DHT22;6269;51.044;13.692;2024-02-28T15:37:20;8.20;1.00
12411;DHT22;6269;51.044;13.692;2024-02-28T15:39:56;7.30;1.00
12411;DHT22;6269;51.044;13.692;2024-02-28T15:42:32;7.10;1.00
12411;DHT22;6269;51.044;13.692;2024-02-28T15:45:11;6.90;1.00
12411;DHT22;6269;51.044;13.692;2024-02-28T15:47:51;6.80;1.00
12411;DHT22;6269;51.044;13.692;2024-02-28T15:50:26;6.70;49.20
12411;DHT22;6269;51.044;13.692;2024-02-28T15:53:02;6.70;99.90
12411;DHT22;6269;51.044;13.692;2024-02-28T15:55:37;6.60;99.90
12411;DHT22;6269;51.044;13.692;2024-02-28T15:58:15;6.50;99.90
12411;DHT22;6269;51.044;13.692;2024-02-28T16:00:51;6.50;99.90
12411;DHT22;6269;51.044;13.692;2024-02-28T16:03:29;6.40;99.90
12411;DHT22;6269;51.044;13.692;2024-02-28T16:06:16;6.40;99.90
12411;DHT22;6269;51.044;13.692;2024-02-28T16:09:08;6.30;1.00
12411;DHT22;6269;51.044;13.692;2024-02-28T16:11:53;6.20;1.00
12411;DHT22;6269;51.044;13.692;2024-02-28T16:14:30;5.20;1.00
12411;DHT22;6269;51.044;13.692;2024-02-28T16:17:06;6.80;1.00
12411;DHT22;6269;51.044;13.692;2024-02-28T16:19:46;6.20;1.00
12411;DHT22;6269;51.044;13.692;2024-02-28T16:22:23;5.90;1.00
12411;DHT22;6269;51.044;13.692;2024-02-28T16:24:59;6.40;1.00
12411;DHT22;6269;51.044;13.692;2024-02-28T16:27:40;5.60;1.00
12411;DHT22;6269;51.044;13.692;2024-02-28T16:30:18;5.60;97.60
12411;DHT22;6269;51.044;13.692;2024-02-28T16:32:59;3.80;99.90
12411;DHT22;6269;51.044;13.692;2024-02-28T16:35:45;5.40;1.00
12411;DHT22;6269;51.044;13.692;2024-02-28T16:38:22;6.30;1.00
12411;DHT22;6269;51.044;13.692;2024-02-28T16:41:04;5.00;60.00
12411;DHT22;6269;51.044;13.692;2024-02-28T16:43:43;5.90;99.90
12411;DHT22;6269;51.044;13.692;2024-02-28T16:46:20;5.00;99.90
12411;DHT22;6269;51.044;13.692;2024-02-28T16:48:56;5.20;99.90
12411;DHT22;6269;51.044;13.692;2024-02-28T16:51:40;3.50;99.90